Time;durP1;ratioP1;P1;durP2;ratioP2;P2;SDS_P1;SDS_P2;PMS_P1;PMS_P2;Temp;Humidity;BMP_temperature;BMP_pressure;BME280_temperature;BME280_humidity;BME280_pressure;Samples;Min_cycle;Max_cycle;Signal;HPM_P1;HPM_P2
2023/08/11 00:02:15;;;;;;;7.60;7.20;;;19.50;25.60;;;;;;6219601;23;20178;-76
2023/08/11 00:04:41;;;;;;;8.70;8.03;;;19.40;25.50;;;;;;6246017;23;20155;-76
2023/08/11 00:07:06;;;;;;;8.40;7.87;;;19.40;25.50;;;;;;6246221;23;20147;-76
2023/08/11 00:09:32;;;;;;;8.47;7.90;;;19.40;25.60;;;;;;6246061;23;20190;-76
2023/08/11 00:11:57;;;;;;;7.70;7.30;;;19.40;25.70;;;;;;6246064;22;20171;-77
2023/08/11 00:14:23;;;;;;;8.83;8.33;;;19.40;25.70;;;;;;6245854;23;20147;-76
2023/08/11 00:16:48;;;;;;;8.80;8.30;;;19.40;25.60;;;;;;6246710;23;20151;-76
2023/08/11 00:19:14;;;;;;;8.47;8.03;;;19.40;25.50;;;;;;6246181;23;20147;-76
2023/08/11 00:21:40;;;;;;;9.57;8.77;;;19.40;25.40;;;;;;6245477;22;20171;-76
2023/08/11 00:24:05;;;;;;;8.43;8.03;;;19.40;25.50;;;;;;6218744;23;20183;-77
2023/08/11 00:26:31;;;;;;;9.53;9.03;;;19.40;26.30;;;;;;6245881;23;20162;-76
2023/08/11 00:28:57;;;;;;;9.30;8.70;;;19.40;25.90;;;;;;6245205;23;20175;-75
2023/08/11 00:31:22;;;;;;;8.83;8.33;;;19.40;26.10;;;;;;6218451;23;20197;-75
2023/08/11 00:33:51;;;;;;;8.83;8.33;;;19.30;26.40;;;;;;6245698;23;20926;-76
2023/08/11 00:36:17;;;;;;;9.47;8.90;;;19.30;26.40;;;;;;6245161;23;20159;-76
2023/08/11 00:38:43;;;;;;;8.40;7.90;;;19.30;26.70;;;;;;6244883;23;20375;-76
2023/08/11 00:41:09;;;;;;;9.10;8.63;;;19.30;26.70;;;;;;6245053;22;20178;-75
2023/08/11 00:43:34;;;;;;;10.37;9.33;;;19.30;26.70;;;;;;6245147;23;20151;-75
2023/08/11 00:46:11;;;;;;;8.17;7.73;;;19.30;26.50;;;;;;6245344;23;20409;-76
2023/08/11 00:48:38;;;;;;;9.17;8.77;;;19.30;26.70;;;;;;6218514;23;20255;-77
2023/08/11 00:51:05;;;;;;;8.77;8.10;;;19.20;26.70;;;;;;6245054;22;20396;-75
2023/08/11 00:53:36;;;;;;;9.50;8.80;;;19.20;26.80;;;;;;6245325;23;20366;-76
2023/08/11 00:56:03;;;;;;;8.70;8.20;;;19.20;26.60;;;;;;6244924;23;20401;-75
2023/08/11 00:58:29;;;;;;;9.70;9.10;;;19.20;26.70;;;;;;6217857;23;20395;-76
2023/08/11 01:00:56;;;;;;;8.90;8.30;;;19.20;26.70;;;;;;6244775;22;20769;-76
2023/08/11 01:03:21;;;;;;;8.83;8.43;;;19.20;26.90;;;;;;6244960;23;20774;-76
2023/08/11 01:06:10;;;;;;;9.33;8.73;;;19.20;26.90;;;;;;6244865;23;20382;-76
2023/08/11 01:08:48;;;;;;;8.80;8.40;;;19.20;27.00;;;;;;6244597;23;20186;-76
2023/08/11 01:11:35;;;;;;;8.67;8.20;;;19.10;27.10;;;;;;6244792;22;20398;-76
2023/08/11 01:14:07;;;;;;;8.90;8.40;;;19.10;27.30;;;;;;6244833;23;20458;-76
2023/08/11 01:16:34;;;;;;;8.57;7.93;;;19.10;27.30;;;;;;6245111;23;20437;-76
2023/08/11 01:19:00;;;;;;;8.47;8.07;;;19.10;27.20;;;;;;6244986;23;20370;-76
2023/08/11 01:21:28;;;;;;;8.80;8.20;;;19.10;27.40;;;;;;6244819;22;20434;-76
2023/08/11 01:23:55;;;;;;;9.20;8.60;;;19.10;27.50;;;;;;6244937;23;20378;-77
2023/08/11 01:26:21;;;;;;;9.33;8.83;;;19.10;27.50;;;;;;6218341;23;20378;-76
2023/08/11 01:28:47;;;;;;;9.20;8.70;;;19.10;28.20;;;;;;6217671;23;20425;-76
2023/08/11 01:31:13;;;;;;;9.47;8.90;;;19.10;27.70;;;;;;6244617;22;20782;-76
2023/08/11 01:33:38;;;;;;;9.70;9.00;;;19.00;27.70;;;;;;6245056;23;20420;-76
2023/08/11 01:36:04;;;;;;;9.50;9.00;;;19.10;27.80;;;;;;6244557;23;20155;-75
2023/08/11 01:38:30;;;;;;;9.10;8.60;;;19.00;27.50;;;;;;6244372;23;20151;-76
2023/08/11 01:40:58;;;;;;;9.80;9.10;;;18.80;28.10;;;;;;6244541;22;20399;-76
2023/08/11 01:43:25;;;;;;;9.33;8.83;;;18.80;28.40;;;;;;6244572;23;20151;-76
2023/08/11 01:45:51;;;;;;;9.10;8.40;;;18.80;28.50;;;;;;6244641;23;20382;-76
2023/08/11 01:48:19;;;;;;;10.40;9.80;;;18.80;28.40;;;;;;6244340;23;20741;-76
2023/08/11 01:50:45;;;;;;;9.30;8.80;;;18.90;28.30;;;;;;6217706;23;20436;-76
2023/08/11 01:53:11;;;;;;;9.60;9.10;;;18.90;28.30;;;;;;6244531;23;20358;-76
2023/08/11 01:55:37;;;;;;;10.33;9.80;;;18.90;28.30;;;;;;6244635;23;20144;-76
2023/08/11 01:58:03;;;;;;;10.23;9.53;;;18.90;28.20;;;;;;6217522;23;20366;-76
2023/08/11 02:00:29;;;;;;;9.73;9.17;;;18.90;28.20;;;;;;6244158;22;20397;-76
2023/08/11 02:02:54;;;;;;;9.33;8.83;;;18.90;28.30;;;;;;6244432;23;20385;-76
2023/08/11 02:05:21;;;;;;;9.80;9.30;;;18.90;28.50;;;;;;6217663;23;20571;-76
2023/08/11 02:07:46;;;;;;;9.50;9.00;;;18.80;28.50;;;;;;6244118;23;20175;-77
2023/08/11 02:10:12;;;;;;;10.53;9.90;;;18.80;28.50;;;;;;6244418;22;20464;-76
2023/08/11 02:12:39;;;;;;;9.70;9.20;;;18.80;28.40;;;;;;6244422;23;20193;-76
2023/08/11 02:15:05;;;;;;;9.70;9.20;;;18.80;28.60;;;;;;6244216;23;20485;-76
2023/08/11 02:17:31;;;;;;;9.57;9.07;;;18.80;28.70;;;;;;6244836;23;20373;-77
2023/08/11 02:19:58;;;;;;;9.80;9.30;;;18.80;29.00;;;;;;6245953;22;20374;-76
2023/08/11 02:22:24;;;;;;;9.87;9.37;;;18.80;28.90;;;;;;6228495;23;20383;-76
2023/08/11 02:24:49;;;;;;;10.60;10.10;;;18.80;29.10;;;;;;6257820;23;20370;-76
2023/08/11 02:27:15;;;;;;;10.70;10.10;;;18.80;28.70;;;;;;6255068;23;20393;-76
2023/08/11 02:29:41;;;;;;;10.07;9.60;;;18.80;28.50;;;;;;6246796;23;20186;-77
2023/08/11 02:32:07;;;;;;;11.27;10.67;;;18.80;28.80;;;;;;6246656;22;20172;-77
2023/08/11 02:34:33;;;;;;;10.77;10.00;;;18.70;28.90;;;;;;6247294;23;20143;-76
2023/08/11 02:36:59;;;;;;;10.43;9.83;;;18.70;28.70;;;;;;6245122;23;20377;-76
2023/08/11 02:39:24;;;;;;;10.13;9.63;;;18.70;28.80;;;;;;6244450;23;20158;-76
2023/08/11 02:41:50;;;;;;;10.40;9.80;;;18.60;29.00;;;;;;6244615;22;20174;-77
2023/08/11 02:44:16;;;;;;;9.83;9.33;;;18.70;29.10;;;;;;6244689;23;20205;-76
2023/08/11 02:46:41;;;;;;;9.97;9.47;;;18.70;29.10;;;;;;6244872;23;20520;-77
2023/08/11 02:49:07;;;;;;;9.63;9.13;;;18.70;29.00;;;;;;6244424;23;20167;-77
2023/08/11 02:51:34;;;;;;;10.57;9.97;;;18.70;29.10;;;;;;6244414;22;20206;-77
2023/08/11 02:54:00;;;;;;;9.43;9.00;;;18.60;29.10;;;;;;6245137;23;20151;-77
2023/08/11 02:56:26;;;;;;;9.93;9.43;;;18.60;29.00;;;;;;6245838;23;20382;-76
2023/08/11 02:58:52;;;;;;;10.80;10.20;;;18.60;29.00;;;;;;6246779;23;20469;-77
2023/08/11 03:01:18;;;;;;;10.73;9.93;;;18.60;29.10;;;;;;6246179;22;20284;-76
2023/08/11 03:03:43;;;;;;;9.93;9.33;;;18.50;29.00;;;;;;6246535;23;20413;-78
2023/08/11 03:06:10;;;;;;;10.30;9.70;;;18.60;29.00;;;;;;6246613;23;20152;-77
2023/08/11 03:08:37;;;;;;;10.33;9.73;;;18.50;29.00;;;;;;6246753;23;20202;-77
2023/08/11 03:11:03;;;;;;;10.43;9.80;;;18.60;29.00;;;;;;6246331;22;20394;-77
2023/08/11 03:13:29;;;;;;;10.50;9.97;;;18.60;29.10;;;;;;6246480;23;20370;-76
2023/08/11 03:15:55;;;;;;;11.27;10.67;;;18.50;29.00;;;;;;6246661;23;20178;-77
2023/08/11 03:18:20;;;;;;;10.00;9.50;;;18.50;29.00;;;;;;6246632;23;20378;-75
2023/08/11 03:20:46;;;;;;;9.90;9.40;;;18.50;29.00;;;;;;6247700;22;20390;-75
2023/08/11 03:23:11;;;;;;;11.73;11.03;;;18.50;29.00;;;;;;6248472;23;20673;-76
2023/08/11 03:25:37;;;;;;;9.97;9.47;;;18.40;28.90;;;;;;6247472;23;20495;-75
2023/08/11 03:28:03;;;;;;;10.23;9.73;;;18.40;28.90;;;;;;6246066;23;20182;-76
2023/08/11 03:30:29;;;;;;;10.63;10.03;;;18.30;29.10;;;;;;6246936;22;20164;-76
2023/08/11 03:32:55;;;;;;;10.50;10.07;;;18.30;28.80;;;;;;6246670;23;20461;-77
2023/08/11 03:35:20;;;;;;;10.83;10.33;;;18.30;28.80;;;;;;6246614;23;20148;-77
2023/08/11 03:37:46;;;;;;;9.17;8.77;;;18.30;28.80;;;;;;6247041;23;20546;-77
2023/08/11 03:40:13;;;;;;;9.67;9.27;;;18.30;28.80;;;;;;6246750;22;20182;-77
2023/08/11 03:42:47;;;;;;;10.03;9.33;;;18.30;28.80;;;;;;6219478;23;20164;-77
2023/08/11 03:45:14;;;;;;;9.90;9.33;;;18.30;28.80;;;;;;6246297;23;20837;-77
2023/08/11 03:47:40;;;;;;;10.77;10.27;;;18.40;28.90;;;;;;6219347;23;20390;-77
2023/08/11 03:50:07;;;;;;;10.20;9.40;;;18.30;28.80;;;;;;6245940;22;20548;-77
2023/08/11 03:52:33;;;;;;;10.23;9.73;;;18.30;28.80;;;;;;6246158;23;20477;-77
2023/08/11 03:54:58;;;;;;;10.83;10.10;;;18.30;28.80;;;;;;6246093;23;20473;-77
2023/08/11 03:57:25;;;;;;;10.87;10.07;;;18.30;28.80;;;;;;6246616;23;20410;-76
2023/08/11 03:59:51;;;;;;;11.13;10.53;;;18.30;28.80;;;;;;6246913;23;20178;-77
2023/08/11 04:02:17;;;;;;;10.73;10.03;;;18.30;28.80;;;;;;6248494;22;20402;-77
2023/08/11 04:04:43;;;;;;;10.70;10.20;;;18.30;28.90;;;;;;6246344;23;20235;-77
2023/08/11 04:07:09;;;;;;;10.93;10.37;;;18.20;28.90;;;;;;6245252;23;20390;-77
2023/08/11 04:09:34;;;;;;;9.90;9.50;;;18.20;29.70;;;;;;6245410;23;20178;-77
2023/08/11 04:12:00;;;;;;;11.93;11.27;;;18.30;29.00;;;;;;6248756;22;20163;-77
2023/08/11 04:14:25;;;;;;;12.10;11.20;;;18.30;28.80;;;;;;6245905;23;20533;-77
2023/08/11 04:16:51;;;;;;;11.70;11.10;;;18.30;28.90;;;;;;6246111;23;20153;-77
2023/08/11 04:19:16;;;;;;;12.03;11.33;;;18.20;28.70;;;;;;6218449;23;20155;-77
2023/08/11 04:21:42;;;;;;;11.83;11.20;;;18.30;29.20;;;;;;6244309;22;20194;-76
2023/08/11 04:24:07;;;;;;;11.30;10.70;;;18.30;29.00;;;;;;6244627;23;20151;-77
2023/08/11 04:26:33;;;;;;;11.70;11.10;;;18.30;28.90;;;;;;6245334;23;20182;-77
2023/08/11 04:29:01;;;;;;;10.20;9.70;;;18.30;28.80;;;;;;6245042;23;20410;-77
2023/08/11 04:31:27;;;;;;;11.00;10.50;;;18.30;28.80;;;;;;6218104;23;20171;-77
2023/08/11 04:33:53;;;;;;;10.70;10.30;;;18.30;28.80;;;;;;6245061;23;20370;-77
2023/08/11 04:36:19;;;;;;;11.70;11.10;;;18.30;28.80;;;;;;6218207;23;20374;-77
2023/08/11 04:38:44;;;;;;;11.50;11.00;;;18.20;28.70;;;;;;6245166;23;20154;-77
2023/08/11 04:41:10;;;;;;;10.90;10.40;;;18.20;28.80;;;;;;6245097;22;20172;-78
2023/08/11 04:43:36;;;;;;;11.57;10.97;;;18.20;29.00;;;;;;6245337;23;20147;-77
2023/08/11 04:46:01;;;;;;;11.43;10.90;;;18.20;29.10;;;;;;6245300;23;20151;-77
2023/08/11 04:48:27;;;;;;;10.40;9.90;;;18.20;29.20;;;;;;6218074;23;20627;-77
2023/08/11 04:50:52;;;;;;;11.03;10.53;;;18.20;29.50;;;;;;6219074;23;20175;-77
2023/08/11 04:53:18;;;;;;;11.00;10.33;;;18.20;29.40;;;;;;6245356;23;20202;-77
2023/08/11 04:55:44;;;;;;;11.70;11.03;;;18.20;29.40;;;;;;6245072;23;20152;-77
2023/08/11 04:58:10;;;;;;;11.47;10.73;;;18.20;29.20;;;;;;6245106;23;20524;-77
2023/08/11 05:00:37;;;;;;;10.90;10.30;;;18.20;29.30;;;;;;6244463;22;20179;-77
2023/08/11 05:03:03;;;;;;;11.03;10.43;;;18.20;29.20;;;;;;6245240;23;20513;-78
2023/08/11 05:05:29;;;;;;;12.23;11.53;;;18.20;29.10;;;;;;6245216;23;20370;-78
2023/08/11 05:07:54;;;;;;;12.43;11.67;;;18.20;28.90;;;;;;6218275;23;20762;-77
2023/08/11 05:10:20;;;;;;;11.67;11.00;;;18.20;29.10;;;;;;6218095;23;20270;-77
2023/08/11 05:12:48;;;;;;;11.37;10.77;;;18.20;29.20;;;;;;6244932;23;20424;-77
2023/08/11 05:15:13;;;;;;;11.93;11.03;;;18.20;28.70;;;;;;6244941;23;20257;-77
2023/08/11 05:17:39;;;;;;;12.20;11.40;;;18.20;28.70;;;;;;6245223;23;20364;-78
2023/08/11 05:20:09;;;;;;;10.97;10.10;;;18.30;28.80;;;;;;6244226;22;20146;-77
2023/08/11 05:22:35;;;;;;;12.13;11.53;;;18.30;28.80;;;;;;6244768;23;20462;-77
2023/08/11 05:25:04;;;;;;;11.80;11.20;;;18.30;28.80;;;;;;6244907;23;20417;-77
2023/08/11 05:27:30;;;;;;;11.07;10.57;;;18.30;28.80;;;;;;6218100;23;20417;-77
2023/08/11 05:29:56;;;;;;;11.57;10.87;;;18.40;28.90;;;;;;6242614;22;20374;-78
2023/08/11 05:32:23;;;;;;;11.77;11.17;;;18.40;28.70;;;;;;6243401;23;20588;-77
2023/08/11 05:34:49;;;;;;;12.17;11.47;;;18.40;28.50;;;;;;6245575;23;20190;-76
2023/08/11 05:37:15;;;;;;;10.93;10.27;;;18.40;28.40;;;;;;6244677;23;20375;-76
2023/08/11 05:39:41;;;;;;;12.23;11.63;;;18.50;28.60;;;;;;6244540;23;20433;-76
2023/08/11 05:42:07;;;;;;;11.20;10.57;;;18.40;28.10;;;;;;6245745;22;20171;-77
2023/08/11 05:44:33;;;;;;;12.57;11.97;;;18.30;28.40;;;;;;6217825;23;20393;-76
2023/08/11 05:46:59;;;;;;;12.93;11.80;;;18.20;28.70;;;;;;6244383;23;20375;-76
2023/08/11 05:49:25;;;;;;;12.90;12.00;;;18.20;28.70;;;;;;6219744;23;20471;-78
2023/08/11 05:51:50;;;;;;;12.30;11.33;;;18.20;28.70;;;;;;6218197;23;20190;-76
2023/08/11 05:54:16;;;;;;;13.00;12.00;;;18.20;28.70;;;;;;6245026;23;20154;-75
2023/08/11 05:56:42;;;;;;;13.23;12.37;;;18.30;29.20;;;;;;6244567;23;20530;-77
2023/08/11 05:59:07;;;;;;;13.00;12.20;;;18.30;28.80;;;;;;6243675;23;20174;-76
2023/08/11 06:01:33;;;;;;;11.50;10.90;;;18.40;28.90;;;;;;6244591;22;20885;-76
2023/08/11 06:03:59;;;;;;;13.60;12.40;;;18.50;29.00;;;;;;6217545;23;20162;-76
2023/08/11 06:06:24;;;;;;;13.43;12.60;;;18.60;28.80;;;;;;6244926;23;20173;-76
2023/08/11 06:08:50;;;;;;;13.23;12.33;;;18.60;29.00;;;;;;6217884;23;20179;-77
2023/08/11 06:11:16;;;;;;;12.00;11.33;;;18.70;29.10;;;;;;6245142;22;20170;-77
2023/08/11 06:13:42;;;;;;;13.13;12.00;;;18.70;28.70;;;;;;6220739;23;20159;-76
2023/08/11 06:16:08;;;;;;;12.70;11.70;;;18.80;28.60;;;;;;6244425;23;20147;-76
2023/08/11 06:18:33;;;;;;;13.10;12.10;;;18.80;28.70;;;;;;6244689;23;20922;-76
2023/08/11 06:21:00;;;;;;;12.80;11.73;;;18.90;28.80;;;;;;6244376;22;20171;-76
2023/08/11 06:23:26;;;;;;;12.83;12.13;;;18.90;28.80;;;;;;6245572;23;20148;-75
2023/08/11 06:25:52;;;;;;;13.43;12.63;;;18.90;28.50;;;;;;6218377;23;20414;-77
2023/08/11 06:28:18;;;;;;;13.03;11.83;;;19.00;28.40;;;;;;6217747;23;20489;-76
2023/08/11 06:30:43;;;;;;;13.67;12.77;;;18.90;27.90;;;;;;6245007;22;20166;-76
2023/08/11 06:33:09;;;;;;;13.80;13.00;;;18.90;28.10;;;;;;6247550;23;20151;-75
2023/08/11 06:35:34;;;;;;;12.50;11.80;;;19.00;27.90;;;;;;6247038;23;20155;-75
2023/08/11 06:38:00;;;;;;;14.00;13.20;;;19.00;27.50;;;;;;6220112;23;20663;-75
2023/08/11 06:40:25;;;;;;;15.07;13.63;;;19.00;27.90;;;;;;6247983;22;20517;-75
2023/08/11 06:42:51;;;;;;;12.57;11.87;;;19.00;27.90;;;;;;6247910;23;20524;-76
2023/08/11 06:45:17;;;;;;;14.50;12.40;;;19.00;27.60;;;;;;6249001;23;20518;-75
2023/08/11 06:47:42;;;;;;;13.30;12.50;;;19.00;27.60;;;;;;6248494;23;20642;-77
2023/08/11 06:50:08;;;;;;;13.57;12.67;;;19.10;27.90;;;;;;6247055;22;20151;-76
2023/08/11 06:52:34;;;;;;;13.93;12.93;;;19.10;27.90;;;;;;6247671;23;20154;-76
2023/08/11 06:54:59;;;;;;;12.80;12.10;;;19.20;27.90;;;;;;6246674;23;20368;-76
2023/08/11 06:57:25;;;;;;;13.03;12.00;;;19.30;27.90;;;;;;6246889;23;20596;-76
2023/08/11 06:59:50;;;;;;;13.77;12.77;;;19.30;27.90;;;;;;6247703;23;20155;-75
2023/08/11 07:02:16;;;;;;;13.10;12.40;;;19.40;27.40;;;;;;6247663;22;20167;-77
2023/08/11 07:04:41;;;;;;;13.53;12.80;;;19.40;27.40;;;;;;6246938;23;20148;-76
2023/08/11 07:07:07;;;;;;;14.03;13.00;;;19.50;27.00;;;;;;6246715;23;20144;-77
2023/08/11 07:09:33;;;;;;;14.00;13.10;;;19.50;26.90;;;;;;6253575;23;20627;-75
2023/08/11 07:11:59;;;;;;;15.50;14.40;;;19.60;27.20;;;;;;6255708;22;20175;-77
2023/08/11 07:14:25;;;;;;;14.77;13.97;;;19.60;27.50;;;;;;6229155;23;20456;-76
2023/08/11 07:16:50;;;;;;;13.77;12.90;;;19.70;27.50;;;;;;6257947;23;20152;-77
2023/08/11 07:19:18;;;;;;;14.67;13.77;;;19.70;27.10;;;;;;6256085;23;20151;-76
2023/08/11 07:21:43;;;;;;;14.83;13.63;;;19.80;26.80;;;;;;6258073;22;20182;-77
2023/08/11 07:24:10;;;;;;;14.10;13.30;;;19.90;27.30;;;;;;6256575;23;20374;-78
2023/08/11 07:26:35;;;;;;;15.57;14.57;;;19.90;27.40;;;;;;6256402;23;20152;-76
2023/08/11 07:29:01;;;;;;;14.13;13.30;;;19.90;27.50;;;;;;6255903;23;20952;-77
2023/08/11 07:31:27;;;;;;;14.37;13.57;;;20.00;27.20;;;;;;6252053;22;20219;-77
2023/08/11 07:33:53;;;;;;;14.73;13.83;;;20.10;27.00;;;;;;6220838;23;20900;-77
2023/08/11 07:36:20;;;;;;;15.77;14.50;;;20.20;26.50;;;;;;6247489;23;20584;-78
2023/08/11 07:38:45;;;;;;;14.33;13.23;;;20.30;26.70;;;;;;6250721;23;20490;-77
2023/08/11 07:41:11;;;;;;;14.10;13.40;;;20.30;26.60;;;;;;6248449;22;20394;-77
2023/08/11 07:43:36;;;;;;;15.80;14.60;;;20.40;26.40;;;;;;6247405;23;20592;-77
2023/08/11 07:46:03;;;;;;;14.73;14.03;;;20.50;26.40;;;;;;6247185;23;20537;-77
2023/08/11 07:48:28;;;;;;;15.90;15.00;;;20.50;26.20;;;;;;6246631;23;20178;-77
2023/08/11 07:50:54;;;;;;;14.70;13.90;;;20.50;25.90;;;;;;6246562;22;20390;-76
2023/08/11 07:53:19;;;;;;;15.20;14.23;;;20.60;26.50;;;;;;6246692;23;20175;-77
2023/08/11 07:55:45;;;;;;;15.60;14.60;;;20.70;25.60;;;;;;6247016;23;20195;-77
2023/08/11 07:58:11;;;;;;;15.53;14.63;;;20.80;25.20;;;;;;6219861;23;20161;-77
2023/08/11 08:00:36;;;;;;;15.37;14.43;;;20.90;25.40;;;;;;6247063;22;20167;-75
2023/08/11 08:03:02;;;;;;;14.77;13.90;;;20.90;25.30;;;;;;6246765;23;20151;-77
2023/08/11 08:05:27;;;;;;;14.43;13.70;;;21.00;25.10;;;;;;6221202;23;20473;-78
2023/08/11 08:07:53;;;;;;;14.90;13.73;;;21.00;25.60;;;;;;6221731;23;20580;-77
2023/08/11 08:10:20;;;;;;;14.27;13.30;;;21.10;25.40;;;;;;6255222;22;20176;-74
2023/08/11 08:12:45;;;;;;;13.47;12.77;;;21.30;24.80;;;;;;6257824;23;20143;-76
2023/08/11 08:15:12;;;;;;;14.23;13.23;;;21.40;24.50;;;;;;6257428;23;20396;-77
2023/08/11 08:17:39;;;;;;;14.30;13.20;;;21.50;24.30;;;;;;6229361;23;20562;-76
2023/08/11 08:20:09;;;;;;;14.53;13.27;;;21.60;24.30;;;;;;6224702;22;20375;-77
2023/08/11 08:22:36;;;;;;;13.67;12.70;;;21.70;24.10;;;;;;6223435;23;20366;-78
2023/08/11 08:25:06;;;;;;;14.40;13.50;;;21.70;24.30;;;;;;6226553;23;20374;-76
2023/08/11 08:27:35;;;;;;;14.33;13.53;;;21.70;24.40;;;;;;6225427;23;20358;-77
2023/08/11 08:30:01;;;;;;;14.33;13.73;;;21.70;24.40;;;;;;6247939;22;20390;-77
2023/08/11 08:32:27;;;;;;;14.50;13.57;;;21.70;24.30;;;;;;6249062;23;20363;-77
2023/08/11 08:34:52;;;;;;;14.30;13.23;;;21.70;25.40;;;;;;6222796;23;20487;-77
2023/08/11 08:37:19;;;;;;;12.80;12.10;;;21.90;23.80;;;;;;6221659;23;20378;-77
2023/08/11 08:39:48;;;;;;;13.03;12.13;;;22.00;23.00;;;;;;6246252;23;20468;-77
2023/08/11 08:42:15;;;;;;;13.13;12.20;;;22.10;23.30;;;;;;6245536;22;20421;-77
2023/08/11 08:44:42;;;;;;;24.77;14.10;;;22.20;23.20;;;;;;6245743;23;20374;-76
2023/08/11 08:47:08;;;;;;;14.03;13.23;;;22.40;23.30;;;;;;6246472;23;20456;-76
2023/08/11 08:49:36;;;;;;;12.70;11.70;;;22.50;22.90;;;;;;6247091;23;20484;-76
2023/08/11 08:52:02;;;;;;;13.17;12.43;;;22.70;22.50;;;;;;6246501;22;20482;-77
2023/08/11 08:54:28;;;;;;;14.27;13.57;;;22.70;22.40;;;;;;6246329;23;20389;-77
2023/08/11 08:56:56;;;;;;;13.33;12.73;;;22.70;22.30;;;;;;6246136;23;20401;-77
2023/08/11 08:59:22;;;;;;;12.10;11.47;;;22.80;22.60;;;;;;6246363;23;20770;-77
2023/08/11 09:01:49;;;;;;;13.43;12.77;;;22.70;22.50;;;;;;6219288;23;20406;-77
2023/08/11 09:04:16;;;;;;;13.57;12.80;;;22.90;22.50;;;;;;6245847;23;20374;-78
2023/08/11 09:06:41;;;;;;;14.30;13.40;;;23.00;21.70;;;;;;6245732;23;20460;-77
2023/08/11 09:09:09;;;;;;;14.00;13.07;;;23.20;21.20;;;;;;6245589;23;20488;-77
2023/08/11 09:11:38;;;;;;;13.60;12.90;;;23.20;21.50;;;;;;6246284;22;20167;-77
2023/08/11 09:14:07;;;;;;;14.50;13.67;;;23.20;21.20;;;;;;6246456;23;20370;-78
2023/08/11 09:16:34;;;;;;;13.43;12.83;;;23.30;21.30;;;;;;6219563;23;20378;-77
2023/08/11 09:19:00;;;;;;;13.77;13.07;;;23.40;20.80;;;;;;6218837;23;20757;-77
2023/08/11 09:21:26;;;;;;;12.70;12.10;;;23.50;21.30;;;;;;6221663;23;20445;-77
2023/08/11 09:23:54;;;;;;;13.53;12.40;;;23.60;20.80;;;;;;6219860;23;20383;-76
2023/08/11 09:26:24;;;;;;;13.00;12.10;;;23.70;20.70;;;;;;6219850;23;20607;-78
2023/08/11 09:28:50;;;;;;;12.90;12.33;;;23.70;20.70;;;;;;6220189;23;20540;-77
2023/08/11 09:31:19;;;;;;;14.57;13.00;;;23.70;20.90;;;;;;6246792;22;20460;-77
2023/08/11 09:33:45;;;;;;;14.33;11.80;;;23.70;21.10;;;;;;6246134;23;20853;-77
2023/08/11 09:36:11;;;;;;;12.77;12.17;;;24.00;20.00;;;;;;6245589;23;20371;-78
2023/08/11 09:38:36;;;;;;;12.83;12.23;;;24.00;20.10;;;;;;6245946;23;20151;-77
2023/08/11 09:41:05;;;;;;;13.47;12.57;;;24.20;19.90;;;;;;6219491;23;20425;-77
2023/08/11 09:43:31;;;;;;;12.80;12.20;;;24.50;18.50;;;;;;6219290;23;20159;-77
2023/08/11 09:45:59;;;;;;;13.77;13.07;;;24.80;18.30;;;;;;6246670;23;20374;-77
2023/08/11 09:48:28;;;;;;;12.80;12.20;;;24.90;17.30;;;;;;6218923;23;20233;-77
2023/08/11 09:50:56;;;;;;;12.27;11.67;;;25.20;17.20;;;;;;6245027;22;20390;-76
2023/08/11 09:53:23;;;;;;;11.10;10.60;;;25.30;17.00;;;;;;6219282;23;20912;-76
2023/08/11 09:55:50;;;;;;;12.13;11.40;;;25.40;16.70;;;;;;6247659;23;20873;-76
2023/08/11 09:58:19;;;;;;;12.17;11.53;;;25.60;15.70;;;;;;6246868;23;20910;-76
2023/08/11 10:00:47;;;;;;;12.77;12.17;;;25.70;15.80;;;;;;6219938;23;20406;-76
2023/08/11 10:03:22;;;;;;;12.23;11.53;;;25.90;16.00;;;;;;6246852;23;20820;-77
2023/08/11 10:05:50;;;;;;;12.13;11.53;;;26.00;15.50;;;;;;6246357;23;20441;-78
2023/08/11 10:08:23;;;;;;;12.30;11.70;;;26.20;14.90;;;;;;6244792;23;20417;-77
2023/08/11 10:10:49;;;;;;;11.50;10.80;;;26.30;15.40;;;;;;6246418;22;20765;-76
2023/08/11 10:13:18;;;;;;;12.93;12.20;;;26.30;15.00;;;;;;6252542;23;20366;-76
2023/08/11 10:15:45;;;;;;;12.13;11.60;;;26.20;14.20;;;;;;6233040;23;20150;-76
2023/08/11 10:18:20;;;;;;;11.90;11.10;;;26.30;15.20;;;;;;6246191;23;20812;-76
2023/08/11 10:20:46;;;;;;;12.13;11.53;;;26.60;13.80;;;;;;6245753;22;20408;-76
2023/08/11 10:23:13;;;;;;;13.13;12.23;;;26.70;13.30;;;;;;6218941;23;20386;-76
2023/08/11 10:25:39;;;;;;;12.23;11.73;;;26.70;13.10;;;;;;6245528;23;20714;-77
2023/08/11 10:28:07;;;;;;;12.50;11.80;;;26.90;12.80;;;;;;6244576;23;20485;-77
2023/08/11 10:30:33;;;;;;;11.60;11.10;;;27.00;13.10;;;;;;6245080;22;20386;-77
2023/08/11 10:33:06;;;;;;;13.27;12.53;;;26.90;13.10;;;;;;6245082;23;20397;-76
2023/08/11 10:35:34;;;;;;;12.40;11.70;;;26.90;13.50;;;;;;6245113;23;20465;-77
2023/08/11 10:38:00;;;;;;;12.60;12.00;;;26.90;13.30;;;;;;6220163;23;20382;-75
2023/08/11 10:40:34;;;;;;;13.03;12.30;;;26.90;13.10;;;;;;6246993;22;20441;-76
2023/08/11 10:43:02;;;;;;;13.00;12.27;;;26.90;13.00;;;;;;6247338;23;20162;-76
2023/08/11 10:45:32;;;;;;;11.73;11.03;;;26.90;12.60;;;;;;6247396;23;20380;-76
2023/08/11 10:47:58;;;;;;;13.67;12.97;;;26.90;12.70;;;;;;6246670;23;20418;-76
2023/08/11 10:50:25;;;;;;;12.20;11.70;;;26.90;12.80;;;;;;6218103;23;20432;-76
2023/08/11 10:53:18;;;;;;;12.53;11.93;;;27.00;13.10;;;;;;6217623;23;20378;-76
2023/08/11 10:55:58;;;;;;;11.50;11.00;;;27.10;13.10;;;;;;6244847;23;20394;-76
2023/08/11 10:58:24;;;;;;;12.00;11.50;;;27.10;12.30;;;;;;6218007;23;20374;-77
2023/08/11 11:00:50;;;;;;;13.47;12.57;;;27.20;12.40;;;;;;6244778;22;21040;-77
2023/08/11 11:03:15;;;;;;;12.63;11.90;;;27.30;12.30;;;;;;6221256;23;20372;-76
2023/08/11 11:05:44;;;;;;;11.27;10.83;;;27.30;12.10;;;;;;6245418;23;20225;-76
2023/08/11 11:08:10;;;;;;;12.50;11.80;;;27.40;11.90;;;;;;6244637;23;20618;-76
2023/08/11 11:10:35;;;;;;;13.40;12.70;;;27.40;12.20;;;;;;6244895;22;20410;-75
2023/08/11 11:13:01;;;;;;;11.67;11.00;;;27.30;12.40;;;;;;6218138;23;20155;-76
2023/08/11 11:15:29;;;;;;;11.80;11.20;;;27.20;13.10;;;;;;6245432;23;20568;-76
2023/08/11 11:17:55;;;;;;;11.50;10.90;;;27.10;13.10;;;;;;6246163;23;20143;-76
2023/08/11 11:20:22;;;;;;;12.17;11.37;;;27.00;13.10;;;;;;6220219;23;20394;-77
2023/08/11 11:22:49;;;;;;;11.80;11.10;;;26.90;13.00;;;;;;6247339;23;20761;-76
2023/08/11 11:25:25;;;;;;;11.33;10.83;;;27.00;13.10;;;;;;6220732;23;20477;-77
2023/08/11 11:27:50;;;;;;;12.30;11.70;;;27.00;13.10;;;;;;6247273;23;20365;-77
2023/08/11 11:30:18;;;;;;;11.73;11.20;;;27.00;13.00;;;;;;6246815;22;20386;-77
2023/08/11 11:32:43;;;;;;;12.80;11.73;;;27.10;12.80;;;;;;6246349;23;20223;-77
2023/08/11 11:35:09;;;;;;;12.10;11.33;;;27.10;13.10;;;;;;6247098;23;20374;-75
2023/08/11 11:37:36;;;;;;;11.40;10.77;;;27.30;12.50;;;;;;6246694;23;20158;-76
2023/08/11 11:40:06;;;;;;;11.90;11.00;;;27.30;13.00;;;;;;6246474;22;20409;-76
2023/08/11 11:42:34;;;;;;;12.13;11.37;;;27.30;12.90;;;;;;6246499;23;20358;-76
2023/08/11 11:45:00;;;;;;;12.30;11.60;;;27.10;13.10;;;;;;6219820;23;20382;-76
2023/08/11 11:47:26;;;;;;;12.00;11.30;;;27.00;13.10;;;;;;6219901;23;20725;-76
2023/08/11 11:49:55;;;;;;;12.07;11.47;;;26.90;13.40;;;;;;6219962;23;20226;-75
2023/08/11 11:52:21;;;;;;;11.97;11.37;;;26.80;13.90;;;;;;6246771;23;20370;-77
2023/08/11 11:54:54;;;;;;;12.40;11.70;;;26.70;13.80;;;;;;6246523;23;20375;-76
2023/08/11 11:57:23;;;;;;;12.03;11.43;;;26.60;14.00;;;;;;6247505;23;20275;-78
2023/08/11 11:59:50;;;;;;;12.30;11.60;;;26.60;14.00;;;;;;6246009;23;20718;-77
2023/08/11 12:02:16;;;;;;;12.03;11.43;;;26.60;13.80;;;;;;6246781;22;20422;-78
2023/08/11 12:04:43;;;;;;;11.37;10.87;;;26.50;14.10;;;;;;6219504;23;20390;-76
2023/08/11 12:07:09;;;;;;;12.77;11.93;;;26.40;14.20;;;;;;6247680;23;20425;-77
2023/08/11 12:10:01;;;;;;;11.80;11.20;;;26.40;14.30;;;;;;6220827;23;20929;-75
2023/08/11 12:12:28;;;;;;;12.53;11.97;;;26.40;14.60;;;;;;6217125;23;20389;-76
2023/08/11 12:15:00;;;;;;;13.13;12.33;;;26.40;14.80;;;;;;6248089;23;20397;-75
2023/08/11 12:17:33;;;;;;;11.73;11.20;;;26.50;14.10;;;;;;6220476;23;20408;-77
2023/08/11 12:20:03;;;;;;;11.70;11.00;;;26.70;13.50;;;;;;6249489;22;20450;-76
2023/08/11 12:22:29;;;;;;;11.33;10.73;;;26.70;13.80;;;;;;6248297;23;20359;-76
2023/08/11 12:24:54;;;;;;;11.27;10.53;;;26.60;13.90;;;;;;6247524;23;20380;-76
2023/08/11 12:27:20;;;;;;;11.67;10.97;;;26.70;13.90;;;;;;6247831;23;20166;-77
2023/08/11 12:29:46;;;;;;;11.53;10.93;;;26.80;13.30;;;;;;6245643;23;20171;-76